sensor_id;sensor_type;location;lat;lon;timestamp;P1;durP1;ratioP1;P2;durP2;ratioP2
16401;SDS011;8310;44.626;11.176;2023-04-25T00:36:04;2.97;;;2.67;;
16401;SDS011;8310;44.626;11.176;2023-04-25T00:38:33;3.78;;;2.95;;
16401;SDS011;8310;44.626;11.176;2023-04-25T00:41:00;3.30;;;2.90;;
16401;SDS011;8310;44.626;11.176;2023-04-25T00:43:28;3.40;;;3.03;;
16401;SDS011;8310;44.626;11.176;2023-04-25T00:45:59;3.38;;;3.08;;
16401;SDS011;8310;44.626;11.176;2023-04-25T00:48:27;3.80;;;3.50;;
16401;SDS011;8310;44.626;11.176;2023-04-25T00:50:57;3.60;;;3.30;;
16401;SDS011;8310;44.626;11.176;2023-04-25T00:53:27;5.38;;;3.20;;
16401;SDS011;8310;44.626;11.176;2023-04-25T00:55:57;5.00;;;3.80;;
16401;SDS011;8310;44.626;11.176;2023-04-25T00:58:25;7.07;;;3.55;;
16401;SDS011;8310;44.626;11.176;2023-04-25T01:00:53;6.60;;;3.83;;
16401;SDS011;8310;44.626;11.176;2023-04-25T01:03:22;4.00;;;3.60;;
16401;SDS011;8310;44.626;11.176;2023-04-25T13:01:22;0.98;;;0.98;;
16401;SDS011;8310;44.626;11.176;2023-04-25T13:03:55;0.85;;;0.85;;
16401;SDS011;8310;44.626;11.176;2023-04-25T13:06:22;1.20;;;1.13;;
16401;SDS011;8310;44.626;11.176;2023-04-25T13:08:50;0.90;;;0.90;;
16401;SDS011;8310;44.626;11.176;2023-04-25T13:16:13;1.17;;;1.17;;
16401;SDS011;8310;44.626;11.176;2023-04-25T13:18:40;1.48;;;1.38;;
16401;SDS011;8310;44.626;11.176;2023-04-25T13:21:10;1.90;;;1.80;;
16401;SDS011;8310;44.626;11.176;2023-04-25T19:38:25;4.72;;;2.80;;
16401;SDS011;8310;44.626;11.176;2023-04-25T19:40:54;2.60;;;2.35;;
16401;SDS011;8310;44.626;11.176;2023-04-25T19:43:22;3.50;;;2.53;;
16401;SDS011;8310;44.626;11.176;2023-04-25T19:45:49;3.03;;;2.10;;
16401;SDS011;8310;44.626;11.176;2023-04-25T19:48:16;2.40;;;2.00;;
16401;SDS011;8310;44.626;11.176;2023-04-25T19:53:11;8.80;;;2.60;;
16401;SDS011;8310;44.626;11.176;2023-04-25T20:15:21;5.18;;;2.13;;
16401;SDS011;8310;44.626;11.176;2023-04-25T20:17:48;4.40;;;2.42;;
16401;SDS011;8310;44.626;11.176;2023-04-25T20:20:16;2.30;;;2.03;;
16401;SDS011;8310;44.626;11.176;2023-04-25T20:22:43;5.97;;;2.85;;
16401;SDS011;8310;44.626;11.176;2023-04-25T20:25:10;4.43;;;2.65;;
16401;SDS011;8310;44.626;11.176;2023-04-25T20:27:38;4.10;;;3.13;;
16401;SDS011;8310;44.626;11.176;2023-04-25T21:41:37;4.47;;;3.07;;
16401;SDS011;8310;44.626;11.176;2023-04-25T22:01:21;4.90;;;4.50;;
16401;SDS011;8310;44.626;11.176;2023-04-25T22:03:48;4.32;;;3.85;;
16401;SDS011;8310;44.626;11.176;2023-04-25T22:06:16;4.78;;;4.43;;
16401;SDS011;8310;44.626;11.176;2023-04-25T22:08:44;4.35;;;3.95;;
16401;SDS011;8310;44.626;11.176;2023-04-25T22:11:12;4.10;;;3.78;;
16401;SDS011;8310;44.626;11.176;2023-04-25T22:13:40;4.13;;;3.72;;
16401;SDS011;8310;44.626;11.176;2023-04-25T22:16:10;4.22;;;3.78;;
16401;SDS011;8310;44.626;11.176;2023-04-25T22:18:38;3.80;;;3.50;;
16401;SDS011;8310;44.626;11.176;2023-04-25T22:21:06;4.68;;;4.32;;
16401;SDS011;8310;44.626;11.176;2023-04-25T22:23:34;4.45;;;4.05;;
16401;SDS011;8310;44.626;11.176;2023-04-25T22:26:07;4.43;;;4.07;;
16401;SDS011;8310;44.626;11.176;2023-04-25T22:28:36;4.70;;;4.40;;
16401;SDS011;8310;44.626;11.176;2023-04-25T22:31:04;5.28;;;4.40;;
16401;SDS011;8310;44.626;11.176;2023-04-25T22:33:33;5.47;;;4.93;;
16401;SDS011;8310;44.626;11.176;2023-04-25T22:36:01;4.75;;;4.45;;
16401;SDS011;8310;44.626;11.176;2023-04-25T22:38:29;4.65;;;4.22;;
16401;SDS011;8310;44.626;11.176;2023-04-25T22:40:56;4.80;;;4.40;;
16401;SDS011;8310;44.626;11.176;2023-04-25T22:43:24;4.80;;;3.70;;
16401;SDS011;8310;44.626;11.176;2023-04-25T22:45:52;4.85;;;4.35;;
16401;SDS011;8310;44.626;11.176;2023-04-25T22:48:20;4.93;;;4.22;;
16401;SDS011;8310;44.626;11.176;2023-04-25T22:50:50;5.10;;;3.80;;
16401;SDS011;8310;44.626;11.176;2023-04-25T22:53:26;3.90;;;3.58;;
16401;SDS011;8310;44.626;11.176;2023-04-25T22:55:55;4.80;;;4.38;;
16401;SDS011;8310;44.626;11.176;2023-04-25T22:58:22;4.40;;;4.00;;
16401;SDS011;8310;44.626;11.176;2023-04-25T23:00:50;4.50;;;4.20;;
16401;SDS011;8310;44.626;11.176;2023-04-25T23:03:19;4.97;;;4.50;;
16401;SDS011;8310;44.626;11.176;2023-04-25T23:05:46;4.20;;;3.90;;
16401;SDS011;8310;44.626;11.176;2023-04-25T23:08:16;4.70;;;4.30;;
16401;SDS011;8310;44.626;11.176;2023-04-25T23:10:45;4.60;;;4.20;;
16401;SDS011;8310;44.626;11.176;2023-04-25T23:13:12;4.78;;;4.43;;
16401;SDS011;8310;44.626;11.176;2023-04-25T23:15:40;4.95;;;4.55;;
16401;SDS011;8310;44.626;11.176;2023-04-25T23:18:07;4.72;;;4.43;;
16401;SDS011;8310;44.626;11.176;2023-04-25T23:20:35;5.38;;;4.97;;
16401;SDS011;8310;44.626;11.176;2023-04-25T23:23:03;6.30;;;4.97;;
16401;SDS011;8310;44.626;11.176;2023-04-25T23:25:32;4.85;;;4.55;;
16401;SDS011;8310;44.626;11.176;2023-04-25T23:28:04;5.63;;;4.85;;
16401;SDS011;8310;44.626;11.176;2023-04-25T23:30:32;5.22;;;4.72;;
16401;SDS011;8310;44.626;11.176;2023-04-25T23:32:59;6.57;;;4.68;;
16401;SDS011;8310;44.626;11.176;2023-04-25T23:35:28;4.75;;;4.35;;
16401;SDS011;8310;44.626;11.176;2023-04-25T23:37:55;4.82;;;4.40;;
16401;SDS011;8310;44.626;11.176;2023-04-25T23:40:23;5.15;;;4.65;;
16401;SDS011;8310;44.626;11.176;2023-04-25T23:42:53;4.53;;;4.22;;
16401;SDS011;8310;44.626;11.176;2023-04-25T23:45:22;5.35;;;4.85;;
16401;SDS011;8310;44.626;11.176;2023-04-25T23:47:50;4.88;;;4.47;;
16401;SDS011;8310;44.626;11.176;2023-04-25T23:50:17;5.53;;;4.97;;
16401;SDS011;8310;44.626;11.176;2023-04-25T23:52:45;5.25;;;4.88;;
16401;SDS011;8310;44.626;11.176;2023-04-25T23:55:13;4.93;;;4.35;;
16401;SDS011;8310;44.626;11.176;2023-04-25T23:57:41;4.95;;;4.55;;
